Time;durP1;ratioP1;P1;durP2;ratioP2;P2;SDS_P1;SDS_P2;PMS_P1;PMS_P2;Temp;Humidity;BMP_temperature;BMP_pressure;BME280_temperature;BME280_humidity;BME280_pressure;Samples;Min_cycle;Max_cycle;Signal;HPM_P1;HPM_P2
2023/11/05 00:01:04;;;;;;;;;;;;;;;13.68;64.42;98629.66;5092860;28;19911;-77
2023/11/05 00:03:30;;;;;;;;;;;;;;;13.67;64.42;98630.69;5071016;28;19921;-76
2023/11/05 00:05:55;;;;;;;;;;;;;;;13.65;64.38;98638.84;5072206;28;19951;-76
2023/11/05 00:08:20;;;;;;;;;;;;;;;13.64;64.38;98641.72;5072086;28;19917;-76
2023/11/05 00:10:46;;;;;;;;;;;;;;;13.61;64.13;98635.03;5072126;28;19920;-76
2023/11/05 00:13:11;;;;;;;;;;;;;;;13.61;64.06;98636.88;5071093;28;19912;-77
2023/11/05 00:15:37;;;;;;;;;;;;;;;13.61;64.12;98642.97;5072263;28;19934;-76
2023/11/05 00:18:03;;;;;;;;;;;;;;;13.61;63.97;98645.63;5072280;28;19913;-76
2023/11/05 00:20:28;;;;;;;;;;;;;;;13.60;64.10;98656.47;5072189;28;19918;-76
2023/11/05 00:22:53;;;;;;;;;;;;;;;13.59;63.92;98647.69;5072162;28;20416;-76
2023/11/05 00:25:19;;;;;;;;;;;;;;;13.52;63.75;98657.56;5072156;28;19956;-76
2023/11/05 00:27:44;;;;;;;;;;;;;;;13.45;63.94;98656.00;5071984;28;19923;-76
2023/11/05 00:30:09;;;;;;;;;;;;;;;13.36;64.24;98666.84;5071614;28;19913;-76
2023/11/05 00:32:34;;;;;;;;;;;;;;;13.28;64.45;98674.25;5071909;28;20376;-77
2023/11/05 00:35:00;;;;;;;;;;;;;;;13.21;64.57;98678.81;5071845;28;19920;-76
2023/11/05 00:37:25;;;;;;;;;;;;;;;13.14;64.29;98684.13;5087483;28;20397;-76
2023/11/05 00:39:50;;;;;;;;;;;;;;;13.11;64.59;98681.91;5072018;28;19917;-76
2023/11/05 00:42:16;;;;;;;;;;;;;;;13.07;64.38;98682.56;5072195;28;19916;-76
2023/11/05 00:44:41;;;;;;;;;;;;;;;13.07;64.59;98686.00;5087703;28;19913;-76
2023/11/05 00:47:06;;;;;;;;;;;;;;;13.12;64.55;98683.53;5071936;28;19920;-76
2023/11/05 00:49:32;;;;;;;;;;;;;;;13.11;64.27;98687.19;5072066;28;19916;-76
2023/11/05 00:51:57;;;;;;;;;;;;;;;13.03;64.59;98684.81;5072158;28;19920;-77
2023/11/05 00:54:22;;;;;;;;;;;;;;;12.97;64.73;98685.69;5071801;28;19920;-76
2023/11/05 00:56:47;;;;;;;;;;;;;;;12.93;64.36;98681.81;5091539;28;19920;-75
2023/11/05 00:59:12;;;;;;;;;;;;;;;12.91;64.46;98684.69;5076906;28;19935;-76
2023/11/05 01:01:38;;;;;;;;;;;;;;;12.91;64.75;98687.34;5071899;28;20385;-76
2023/11/05 01:04:03;;;;;;;;;;;;;;;12.92;64.45;98690.81;5086730;28;19958;-77
2023/11/05 01:06:28;;;;;;;;;;;;;;;12.95;64.50;98693.84;5091822;28;20003;-76
2023/11/05 01:08:54;;;;;;;;;;;;;;;13.00;64.32;98691.34;5091727;28;19965;-75
2023/11/05 01:11:20;;;;;;;;;;;;;;;13.02;64.25;98688.50;5091925;28;20385;-77
2023/11/05 01:13:45;;;;;;;;;;;;;;;13.03;64.32;98687.47;5091791;28;19966;-77
2023/11/05 01:16:11;;;;;;;;;;;;;;;13.07;64.30;98693.97;5090537;28;19916;-77
2023/11/05 01:18:37;;;;;;;;;;;;;;;13.10;64.16;98682.94;5091948;28;19952;-76
2023/11/05 01:21:02;;;;;;;;;;;;;;;13.05;64.21;98696.00;5091776;28;19919;-77
2023/11/05 01:23:28;;;;;;;;;;;;;;;13.09;64.42;98699.03;5091770;28;19912;-77
2023/11/05 01:25:53;;;;;;;;;;;;;;;13.11;64.17;98687.19;5091555;28;20435;-76
2023/11/05 01:28:18;;;;;;;;;;;;;;;13.04;64.17;98684.59;5091501;28;19948;-77
2023/11/05 01:30:43;;;;;;;;;;;;;;;13.08;64.31;98684.97;5091553;28;20325;-76
2023/11/05 01:33:09;;;;;;;;;;;;;;;13.10;64.14;98672.31;5091622;28;19912;-77
2023/11/05 01:35:34;;;;;;;;;;;;;;;13.04;64.35;98667.88;5091568;28;19938;-75
2023/11/05 01:37:59;;;;;;;;;;;;;;;12.98;64.50;98655.50;5091518;28;20002;-77
2023/11/05 01:40:25;;;;;;;;;;;;;;;12.94;64.72;98655.13;5090721;28;20377;-76
2023/11/05 01:42:51;;;;;;;;;;;;;;;12.97;64.71;98645.94;5095415;28;19954;-77
2023/11/05 01:45:16;;;;;;;;;;;;;;;13.01;64.61;98639.16;5095195;28;20362;-77
2023/11/05 01:47:42;;;;;;;;;;;;;;;13.07;64.46;98621.59;5093789;28;19948;-77
2023/11/05 01:50:07;;;;;;;;;;;;;;;13.09;64.45;98623.00;5095313;28;19919;-76
2023/11/05 01:52:33;;;;;;;;;;;;;;;13.08;64.47;98631.16;5095748;28;19904;-77
2023/11/05 01:54:59;;;;;;;;;;;;;;;13.07;64.44;98638.31;5095402;28;19934;-76
2023/11/05 01:57:25;;;;;;;;;;;;;;;13.02;64.36;98638.97;5095110;28;19912;-77
2023/11/05 01:59:50;;;;;;;;;;;;;;;12.93;64.54;98637.59;5095115;28;19916;-77
2023/11/05 02:02:16;;;;;;;;;;;;;;;12.87;64.69;98632.34;5094916;28;19999;-77
2023/11/05 02:04:43;;;;;;;;;;;;;;;12.91;64.94;98638.84;5093557;28;19916;-77
2023/11/05 02:07:08;;;;;;;;;;;;;;;12.90;65.13;98645.97;5094753;28;20437;-77
2023/11/05 02:09:33;;;;;;;;;;;;;;;12.92;65.11;98651.06;5094772;28;19920;-76
2023/11/05 02:11:58;;;;;;;;;;;;;;;12.96;64.86;98645.13;5076698;28;19912;-76
2023/11/05 02:14:24;;;;;;;;;;;;;;;12.97;65.00;98652.03;5093847;28;19958;-76
2023/11/05 02:16:49;;;;;;;;;;;;;;;12.97;64.71;98661.81;5095137;28;20277;-76
2023/11/05 02:19:14;;;;;;;;;;;;;;;12.99;64.79;98668.53;5095043;28;20308;-76
2023/11/05 02:21:45;;;;;;;;;;;;;;;12.99;64.63;98670.38;5076774;28;19916;-77
2023/11/05 02:24:10;;;;;;;;;;;;;;;12.97;64.34;98672.44;5094800;28;19912;-76
2023/11/05 02:26:36;;;;;;;;;;;;;;;12.92;64.56;98662.47;5094670;28;19919;-77
2023/11/05 02:29:01;;;;;;;;;;;;;;;12.86;64.35;98660.69;5093108;28;19916;-77
2023/11/05 02:31:26;;;;;;;;;;;;;;;12.76;64.59;98668.28;5094396;28;19916;-75
2023/11/05 02:33:51;;;;;;;;;;;;;;;12.69;64.46;98670.97;5094463;28;19934;-76
2023/11/05 02:36:18;;;;;;;;;;;;;;;12.71;64.48;98653.03;5076223;28;19912;-76
2023/11/05 02:38:43;;;;;;;;;;;;;;;12.68;64.08;98668.53;5094383;28;19912;-76
2023/11/05 02:41:11;;;;;;;;;;;;;;;12.66;63.92;98666.09;5094100;28;20388;-77
2023/11/05 02:43:36;;;;;;;;;;;;;;;12.69;63.97;98647.13;5092953;28;20358;-76
2023/11/05 02:46:02;;;;;;;;;;;;;;;12.66;63.96;98641.47;5094259;28;19999;-77
2023/11/05 02:48:27;;;;;;;;;;;;;;;12.67;64.12;98648.38;5093976;28;20022;-75
2023/11/05 02:50:53;;;;;;;;;;;;;;;12.67;64.00;98637.78;5093985;28;19919;-77
2023/11/05 02:53:18;;;;;;;;;;;;;;;12.66;63.76;98644.91;5093753;28;19908;-75
2023/11/05 02:55:44;;;;;;;;;;;;;;;12.67;64.32;98641.25;5094050;28;19912;-77
2023/11/05 02:58:11;;;;;;;;;;;;;;;12.64;64.05;98657.56;5093994;28;19912;-77
2023/11/05 03:00:36;;;;;;;;;;;;;;;12.62;64.20;98646.34;5093838;28;20010;-76
2023/11/05 03:03:01;;;;;;;;;;;;;;;12.60;64.38;98643.09;5093869;28;19975;-76
2023/11/05 03:05:27;;;;;;;;;;;;;;;12.62;64.50;98653.47;5094244;28;19919;-76
2023/11/05 03:07:52;;;;;;;;;;;;;;;12.63;64.27;98645.34;5093800;28;19916;-77
2023/11/05 03:10:18;;;;;;;;;;;;;;;12.66;63.93;98636.97;5092492;28;19966;-76
2023/11/05 03:12:43;;;;;;;;;;;;;;;12.72;64.00;98645.91;5093793;28;19995;-76
2023/11/05 03:15:09;;;;;;;;;;;;;;;12.64;64.07;98667.34;5093496;28;20412;-77
2023/11/05 03:17:36;;;;;;;;;;;;;;;12.63;64.36;98670.97;5093802;28;19912;-76
2023/11/05 03:20:02;;;;;;;;;;;;;;;12.66;64.45;98682.00;5092522;28;19915;-77
2023/11/05 03:22:27;;;;;;;;;;;;;;;12.64;64.26;98677.94;5093857;28;19912;-76
2023/11/05 03:24:52;;;;;;;;;;;;;;;12.61;64.55;98665.09;5093548;28;19923;-78
2023/11/05 03:27:18;;;;;;;;;;;;;;;12.54;64.59;98661.66;5093322;28;20305;-76
2023/11/05 03:29:43;;;;;;;;;;;;;;;12.47;64.60;98659.06;5093164;28;19954;-77
2023/11/05 03:32:08;;;;;;;;;;;;;;;12.45;65.08;98665.59;5093040;28;19919;-77
2023/11/05 03:34:33;;;;;;;;;;;;;;;12.42;64.86;98658.88;5093115;28;19912;-77
2023/11/05 03:36:59;;;;;;;;;;;;;;;12.41;65.14;98665.19;5093075;28;19912;-77
2023/11/05 03:39:24;;;;;;;;;;;;;;;12.48;64.93;98671.25;5091892;28;20429;-76
2023/11/05 03:41:49;;;;;;;;;;;;;;;12.53;64.99;98668.78;5093149;28;19916;-77
2023/11/05 03:44:15;;;;;;;;;;;;;;;12.55;64.90;98666.75;5093113;28;19912;-76
2023/11/05 03:46:40;;;;;;;;;;;;;;;12.62;64.69;98672.00;5093014;28;19912;-77
2023/11/05 03:49:06;;;;;;;;;;;;;;;12.64;64.34;98672.63;5092932;28;19916;-76
2023/11/05 03:51:31;;;;;;;;;;;;;;;12.63;64.41;98681.56;5074826;28;19923;-77
2023/11/05 03:53:56;;;;;;;;;;;;;;;12.62;64.41;98677.31;5074759;28;19916;-76
2023/11/05 03:56:21;;;;;;;;;;;;;;;12.53;64.55;98682.03;5092691;28;20403;-76
2023/11/05 03:58:47;;;;;;;;;;;;;;;12.49;64.79;98680.03;5092614;28;19919;-77
2023/11/05 04:01:16;;;;;;;;;;;;;;;12.43;64.73;98686.16;5092719;28;20304;-77
2023/11/05 04:03:42;;;;;;;;;;;;;;;12.42;64.76;98682.69;5091985;28;19931;-76
2023/11/05 04:06:07;;;;;;;;;;;;;;;12.43;64.66;98680.88;5092969;28;20320;-76
2023/11/05 04:08:32;;;;;;;;;;;;;;;12.45;65.20;98673.53;5092602;28;19916;-78
2023/11/05 04:10:58;;;;;;;;;;;;;;;12.48;65.20;98689.78;5092340;28;19919;-76
2023/11/05 04:13:23;;;;;;;;;;;;;;;12.46;64.81;98678.59;5092388;28;19923;-77
2023/11/05 04:15:48;;;;;;;;;;;;;;;12.49;64.89;98670.25;5091244;28;19919;-77
2023/11/05 04:18:14;;;;;;;;;;;;;;;12.51;64.57;98686.72;5074260;28;20399;-76
2023/11/05 04:20:39;;;;;;;;;;;;;;;12.50;64.92;98703.63;5092421;28;19943;-77
2023/11/05 04:23:04;;;;;;;;;;;;;;;12.52;64.75;98704.25;5092381;28;19970;-77
2023/11/05 04:25:30;;;;;;;;;;;;;;;12.49;64.67;98701.19;5092392;28;20446;-77
2023/11/05 04:27:55;;;;;;;;;;;;;;;12.46;64.95;98691.03;5092207;28;19970;-77
2023/11/05 04:30:20;;;;;;;;;;;;;;;12.37;64.95;98687.81;5090863;28;19912;-76
2023/11/05 04:32:45;;;;;;;;;;;;;;;12.35;65.44;98685.38;5092002;28;19912;-77
2023/11/05 04:35:11;;;;;;;;;;;;;;;12.37;65.09;98693.09;5092174;28;19920;-77
2023/11/05 04:37:36;;;;;;;;;;;;;;;12.38;65.00;98689.44;5092228;28;19912;-76
2023/11/05 04:40:04;;;;;;;;;;;;;;;12.36;64.72;98683.53;5092123;28;19912;-78
2023/11/05 04:42:29;;;;;;;;;;;;;;;12.35;65.33;98679.28;5092079;28;19912;-77
2023/11/05 04:44:55;;;;;;;;;;;;;;;12.37;65.20;98671.94;5092096;28;19912;-77
2023/11/05 04:47:20;;;;;;;;;;;;;;;12.36;65.27;98680.91;5073710;28;19969;-77
2023/11/05 04:49:46;;;;;;;;;;;;;;;12.31;65.10;98688.66;5090701;28;19916;-76
2023/11/05 04:52:11;;;;;;;;;;;;;;;12.29;65.11;98686.22;5091943;28;19916;-77
2023/11/05 04:54:39;;;;;;;;;;;;;;;12.27;65.09;98682.97;5091918;28;19991;-77
2023/11/05 04:57:04;;;;;;;;;;;;;;;12.26;64.81;98678.69;5091955;28;20445;-77
2023/11/05 04:59:32;;;;;;;;;;;;;;;12.27;64.85;98690.91;5091851;28;19916;-76
2023/11/05 05:01:58;;;;;;;;;;;;;;;12.28;64.87;98683.78;5091858;28;19919;-76
2023/11/05 05:04:24;;;;;;;;;;;;;;;12.26;64.84;98684.00;5091734;28;19924;-77
2023/11/05 05:06:50;;;;;;;;;;;;;;;12.26;64.95;98676.06;5092057;28;19912;-77
2023/11/05 05:09:15;;;;;;;;;;;;;;;12.26;64.73;98668.09;5091746;28;19917;-76
2023/11/05 05:11:41;;;;;;;;;;;;;;;12.23;64.90;98687.06;5090565;28;19916;-77
2023/11/05 05:14:06;;;;;;;;;;;;;;;12.24;64.79;98685.22;5091874;28;19919;-76
2023/11/05 05:16:31;;;;;;;;;;;;;;;12.22;64.63;98685.44;5094824;28;20313;-77
2023/11/05 05:18:56;;;;;;;;;;;;;;;12.25;64.53;98679.72;5096161;28;19966;-76
2023/11/05 05:21:22;;;;;;;;;;;;;;;12.26;64.47;98701.69;5095929;28;19912;-76
2023/11/05 05:23:47;;;;;;;;;;;;;;;12.24;64.17;98695.81;5095903;28;20000;-77
2023/11/05 05:26:12;;;;;;;;;;;;;;;12.20;64.67;98691.97;5096024;28;20439;-78
2023/11/05 05:28:38;;;;;;;;;;;;;;;12.24;64.98;98695.81;5095744;28;19916;-77
2023/11/05 05:31:03;;;;;;;;;;;;;;;12.29;64.38;98704.75;5095835;28;19912;-78
2023/11/05 05:33:28;;;;;;;;;;;;;;;12.28;64.38;98726.13;5095777;28;19912;-77
2023/11/05 05:35:54;;;;;;;;;;;;;;;12.32;64.57;98730.78;5095553;28;19912;-76
2023/11/05 05:38:19;;;;;;;;;;;;;;;12.38;64.46;98716.72;5094742;28;19919;-77
2023/11/05 05:40:44;;;;;;;;;;;;;;;12.48;64.32;98715.47;5095672;28;20454;-77
2023/11/05 05:43:10;;;;;;;;;;;;;;;12.60;63.88;98722.53;5095423;28;19912;-78
2023/11/05 05:45:35;;;;;;;;;;;;;;;12.70;64.14;98725.56;5095390;28;19918;-77
2023/11/05 05:48:00;;;;;;;;;;;;;;;12.81;63.64;98724.09;5094029;28;19916;-78
2023/11/05 05:50:26;;;;;;;;;;;;;;;12.85;63.40;98721.81;5077048;28;20003;-75
2023/11/05 05:52:51;;;;;;;;;;;;;;;12.92;63.46;98714.66;5095100;28;20320;-78
2023/11/05 05:55:16;;;;;;;;;;;;;;;13.01;63.35;98706.22;5076795;28;20396;-77
2023/11/05 05:57:42;;;;;;;;;;;;;;;13.05;63.32;98718.03;5095207;28;19958;-78
2023/11/05 06:00:09;;;;;;;;;;;;;;;13.10;62.80;98709.44;5076931;28;19912;-76
2023/11/05 06:02:35;;;;;;;;;;;;;;;13.19;62.92;98705.53;5076810;28;19912;-77
2023/11/05 06:05:00;;;;;;;;;;;;;;;13.26;63.02;98706.28;5095370;28;20007;-77
2023/11/05 06:07:26;;;;;;;;;;;;;;;13.32;62.41;98726.63;5095143;28;20003;-77
2023/11/05 06:09:51;;;;;;;;;;;;;;;13.37;61.88;98733.94;5076563;28;20003;-76
2023/11/05 06:12:16;;;;;;;;;;;;;;;13.41;62.09;98735.16;5094677;28;19919;-77
2023/11/05 06:14:41;;;;;;;;;;;;;;;13.50;61.97;98723.25;5093556;28;20009;-77
2023/11/05 06:17:07;;;;;;;;;;;;;;;13.55;61.83;98722.59;5094722;28;19912;-78
2023/11/05 06:19:32;;;;;;;;;;;;;;;13.60;61.32;98710.31;5093534;28;19920;-77
2023/11/05 06:21:57;;;;;;;;;;;;;;;13.67;61.36;98702.28;5094743;28;19912;-76
2023/11/05 06:24:23;;;;;;;;;;;;;;;13.72;60.93;98706.94;5094616;28;20343;-78
2023/11/05 06:26:48;;;;;;;;;;;;;;;13.70;60.46;98696.56;5093861;28;19951;-77
2023/11/05 06:29:14;;;;;;;;;;;;;;;13.68;60.96;98698.63;5094294;28;19917;-76
2023/11/05 06:31:40;;;;;;;;;;;;;;;13.67;60.01;98703.09;5094530;28;19914;-76
2023/11/05 06:34:05;;;;;;;;;;;;;;;13.69;60.48;98694.94;5094619;28;19912;-77
2023/11/05 06:36:30;;;;;;;;;;;;;;;13.74;60.47;98695.09;5076276;28;19944;-77
2023/11/05 06:38:55;;;;;;;;;;;;;;;13.82;60.60;98691.34;5094320;28;20377;-77
2023/11/05 06:41:21;;;;;;;;;;;;;;;13.87;60.63;98689.66;5094114;28;19966;-77
2023/11/05 06:43:47;;;;;;;;;;;;;;;13.93;60.56;98691.41;5094186;28;19904;-76
2023/11/05 06:46:12;;;;;;;;;;;;;;;13.97;60.46;98692.59;5094281;28;19912;-77
2023/11/05 06:48:37;;;;;;;;;;;;;;;14.03;60.05;98700.72;5094091;28;19916;-77
2023/11/05 06:51:03;;;;;;;;;;;;;;;14.09;59.29;98700.63;5094255;28;19999;-77
2023/11/05 06:53:28;;;;;;;;;;;;;;;14.13;59.78;98701.03;5094168;28;19919;-76
2023/11/05 06:55:53;;;;;;;;;;;;;;;14.19;59.08;98700.97;5093971;28;19916;-77
2023/11/05 06:58:19;;;;;;;;;;;;;;;14.26;60.16;98696.38;5094015;28;19919;-77
2023/11/05 07:00:44;;;;;;;;;;;;;;;14.33;59.41;98698.97;5093882;28;19919;-77
2023/11/05 07:03:10;;;;;;;;;;;;;;;14.37;59.34;98694.81;5093693;28;19920;-77
2023/11/05 07:05:35;;;;;;;;;;;;;;;14.39;59.21;98692.75;5094014;28;19919;-77
2023/11/05 07:08:02;;;;;;;;;;;;;;;14.46;59.40;98685.56;5075558;28;19924;-77
2023/11/05 07:10:27;;;;;;;;;;;;;;;14.55;59.65;98694.03;5092502;28;19912;-76
2023/11/05 07:12:53;;;;;;;;;;;;;;;14.60;58.56;98705.59;5094029;28;19999;-78
2023/11/05 07:15:18;;;;;;;;;;;;;;;14.62;58.75;98692.91;5093710;28;19912;-77
2023/11/05 07:17:45;;;;;;;;;;;;;;;14.67;57.36;98694.88;5093698;28;20007;-76
2023/11/05 07:20:13;;;;;;;;;;;;;;;14.73;58.31;98685.19;5093614;28;19919;-77
2023/11/05 07:22:39;;;;;;;;;;;;;;;14.78;57.99;98677.34;5093439;28;19912;-76
2023/11/05 07:25:05;;;;;;;;;;;;;;;14.84;57.84;98663.97;5092230;28;19918;-76
2023/11/05 07:27:31;;;;;;;;;;;;;;;14.90;57.54;98668.41;5093638;28;19969;-77
2023/11/05 07:29:56;;;;;;;;;;;;;;;14.97;57.75;98655.03;5093317;28;19916;-76
2023/11/05 07:32:21;;;;;;;;;;;;;;;15.04;57.65;98665.56;5093287;28;19973;-77
2023/11/05 07:34:47;;;;;;;;;;;;;;;15.11;57.69;98661.75;5093070;28;19912;-76
2023/11/05 07:37:13;;;;;;;;;;;;;;;15.17;57.73;98666.16;5093104;28;20285;-77
2023/11/05 07:39:38;;;;;;;;;;;;;;;15.26;58.19;98656.81;5090955;28;20359;-77
2023/11/05 07:42:04;;;;;;;;;;;;;;;15.33;58.04;98653.22;5093084;28;19918;-76
2023/11/05 07:44:29;;;;;;;;;;;;;;;15.39;57.10;98636.34;5093183;28;19999;-77
2023/11/05 07:46:54;;;;;;;;;;;;;;;15.47;56.79;98650.09;5093108;28;19964;-76
2023/11/05 07:49:20;;;;;;;;;;;;;;;15.57;56.21;98645.03;5091676;28;19924;-77
2023/11/05 07:51:45;;;;;;;;;;;;;;;15.63;56.11;98646.00;5092897;28;19912;-76
2023/11/05 07:54:10;;;;;;;;;;;;;;;15.69;55.10;98647.72;5092551;28;19919;-77
2023/11/05 07:56:36;;;;;;;;;;;;;;;15.78;55.19;98645.53;5092629;28;19919;-76
2023/11/05 07:59:03;;;;;;;;;;;;;;;15.86;55.27;98635.31;5092614;28;19916;-76
2023/11/05 08:01:28;;;;;;;;;;;;;;;15.91;54.16;98626.63;5092694;28;19912;-76
2023/11/05 08:03:54;;;;;;;;;;;;;;;15.99;56.01;98636.91;5092563;28;20387;-76
2023/11/05 08:06:19;;;;;;;;;;;;;;;16.14;53.21;98620.44;5074588;28;20387;-75
2023/11/05 08:08:44;;;;;;;;;;;;;;;16.24;54.53;98630.47;5092647;28;19917;-76
2023/11/05 08:11:09;;;;;;;;;;;;;;;16.30;50.78;98637.53;5092555;28;20379;-77
2023/11/05 08:13:35;;;;;;;;;;;;;;;16.39;53.45;98628.16;5077892;28;19912;-73
2023/11/05 08:16:02;;;;;;;;;;;;;;;16.41;52.72;98634.84;5097860;28;19919;-75
2023/11/05 08:18:27;;;;;;;;;;;;;;;16.47;52.81;98644.56;5096085;28;20358;-76
2023/11/05 08:20:53;;;;;;;;;;;;;;;16.55;52.23;98634.56;5092396;28;19912;-77
2023/11/05 08:23:18;;;;;;;;;;;;;;;16.64;51.37;98641.13;5092634;28;19912;-76
2023/11/05 08:25:43;;;;;;;;;;;;;;;16.71;51.55;98631.16;5092263;28;20328;-77
2023/11/05 08:28:09;;;;;;;;;;;;;;;16.77;52.07;98630.19;5092245;28;20385;-77
2023/11/05 08:30:34;;;;;;;;;;;;;;;16.89;52.36;98620.28;5074163;28;20041;-75
2023/11/05 08:33:00;;;;;;;;;;;;;;;16.90;51.45;98613.88;5074304;28;20391;-78
2023/11/05 08:35:25;;;;;;;;;;;;;;;17.00;52.03;98622.06;5092248;28;19912;-76
2023/11/05 08:37:50;;;;;;;;;;;;;;;17.04;51.15;98617.84;5092345;28;19912;-78
2023/11/05 08:40:16;;;;;;;;;;;;;;;17.14;51.38;98620.72;5090934;28;19927;-76
2023/11/05 08:42:42;;;;;;;;;;;;;;;17.27;51.71;98619.56;5092189;28;20354;-77
2023/11/05 08:45:08;;;;;;;;;;;;;;;17.40;50.47;98605.09;5092111;28;19912;-75
2023/11/05 08:47:33;;;;;;;;;;;;;;;17.41;49.60;98593.34;5091869;28;19912;-77
2023/11/05 08:49:59;;;;;;;;;;;;;;;17.48;50.44;98600.13;5091927;28;19988;-76
2023/11/05 08:52:25;;;;;;;;;;;;;;;17.56;50.25;98588.22;5092064;28;19969;-76
2023/11/05 08:54:51;;;;;;;;;;;;;;;17.60;49.82;98589.34;5091651;28;19912;-75
2023/11/05 08:57:16;;;;;;;;;;;;;;;17.68;49.66;98588.97;5073763;28;19980;-74
2023/11/05 08:59:41;;;;;;;;;;;;;;;17.71;49.63;98580.44;5091833;28;19916;-77
2023/11/05 09:02:06;;;;;;;;;;;;;;;17.70;46.98;98580.69;5074033;28;19913;-76
2023/11/05 09:04:32;;;;;;;;;;;;;;;17.77;49.26;98582.13;5092054;28;19920;-78
2023/11/05 09:06:57;;;;;;;;;;;;;;;17.83;48.28;98569.66;5073904;28;20003;-76
2023/11/05 09:09:23;;;;;;;;;;;;;;;17.91;47.17;98566.56;5092069;28;20340;-77
2023/11/05 09:11:48;;;;;;;;;;;;;;;18.03;48.57;98553.09;5091953;28;19987;-76
2023/11/05 09:14:14;;;;;;;;;;;;;;;18.14;48.15;98559.34;5091662;28;19995;-76
2023/11/05 09:16:39;;;;;;;;;;;;;;;18.21;48.31;98562.63;5092285;28;19934;-77
2023/11/05 09:19:05;;;;;;;;;;;;;;;18.29;48.27;98551.50;5092086;28;19912;-76
2023/11/05 09:21:30;;;;;;;;;;;;;;;18.39;47.99;98554.25;5091696;28;20357;-76
2023/11/05 09:23:55;;;;;;;;;;;;;;;18.47;46.82;98550.31;5090291;28;20397;-76
2023/11/05 09:26:22;;;;;;;;;;;;;;;18.54;46.82;98540.22;5091520;28;19913;-77
2023/11/05 09:28:47;;;;;;;;;;;;;;;18.62;49.09;98545.16;5091597;28;19917;-76
2023/11/05 09:31:13;;;;;;;;;;;;;;;18.65;45.58;98520.59;5091448;28;19919;-76
2023/11/05 09:33:38;;;;;;;;;;;;;;;18.82;46.82;98520.47;5091513;28;20368;-76
2023/11/05 09:36:04;;;;;;;;;;;;;;;18.88;45.29;98519.44;5091733;28;19913;-76
2023/11/05 09:38:29;;;;;;;;;;;;;;;19.01;45.62;98513.63;5091646;28;19912;-77
2023/11/05 09:40:54;;;;;;;;;;;;;;;19.13;43.81;98508.09;5091480;28;20399;-77
2023/11/05 09:43:19;;;;;;;;;;;;;;;19.26;47.15;98492.38;5091504;28;19916;-76
2023/11/05 09:45:48;;;;;;;;;;;;;;;19.41;45.58;98496.22;5091600;28;19912;-77
2023/11/05 09:48:13;;;;;;;;;;;;;;;19.49;45.10;98468.97;5090137;28;19916;-77
2023/11/05 09:50:43;;;;;;;;;;;;;;;19.63;45.00;98470.91;5091499;28;19919;-77
2023/11/05 09:53:12;;;;;;;;;;;;;;;19.66;43.11;98459.69;5091386;28;19915;-76
2023/11/05 09:55:41;;;;;;;;;;;;;;;19.82;43.40;98459.72;5089861;28;19916;-76
2023/11/05 09:58:09;;;;;;;;;;;;;;;19.88;40.74;98451.44;5073202;28;19912;-76
2023/11/05 10:00:36;;;;;;;;;;;;;;;19.99;42.17;98438.84;5091180;28;19912;-74
2023/11/05 10:03:08;;;;;;;;;;;;;;;20.03;42.85;98434.56;5092689;28;19973;-76
2023/11/05 10:05:34;;;;;;;;;;;;;;;20.11;41.55;98434.06;5099696;28;19912;-76
2023/11/05 10:08:00;;;;;;;;;;;;;;;20.14;40.56;98430.06;5102515;28;19937;-76
2023/11/05 10:10:26;;;;;;;;;;;;;;;20.18;41.83;98415.06;5081035;28;19999;-77
2023/11/05 10:12:53;;;;;;;;;;;;;;;20.26;42.63;98423.38;5093449;28;19916;-77
2023/11/05 10:15:19;;;;;;;;;;;;;;;20.28;42.72;98415.84;5094963;28;19912;-76
2023/11/05 10:17:44;;;;;;;;;;;;;;;20.35;42.50;98426.31;5094778;28;20057;-76
2023/11/05 10:20:10;;;;;;;;;;;;;;;20.35;41.61;98428.19;5094765;28;19908;-77
2023/11/05 10:22:38;;;;;;;;;;;;;;;20.45;41.70;98417.47;5076411;28;19912;-76
2023/11/05 10:25:06;;;;;;;;;;;;;;;20.50;41.24;98409.44;5094606;28;19995;-76
2023/11/05 10:27:35;;;;;;;;;;;;;;;20.49;41.13;98407.81;5094731;28;19910;-77
2023/11/05 10:30:01;;;;;;;;;;;;;;;20.51;41.19;98408.38;5076335;28;19916;-77
2023/11/05 10:32:27;;;;;;;;;;;;;;;20.53;41.38;98398.97;5094452;28;19912;-75
2023/11/05 10:34:55;;;;;;;;;;;;;;;20.64;40.70;98397.06;5094415;28;19965;-77
2023/11/05 10:37:21;;;;;;;;;;;;;;;20.63;40.63;98390.91;5094397;28;19912;-78
2023/11/05 10:39:46;;;;;;;;;;;;;;;20.68;40.22;98391.97;5094325;28;19966;-74
2023/11/05 10:42:12;;;;;;;;;;;;;;;20.69;39.37;98383.66;5094395;28;19920;-76
2023/11/05 10:44:42;;;;;;;;;;;;;;;20.72;40.29;98375.06;5094348;28;20423;-75
2023/11/05 10:47:10;;;;;;;;;;;;;;;20.80;41.13;98371.81;5094217;28;19912;-74
2023/11/05 10:49:36;;;;;;;;;;;;;;;20.85;40.36;98379.88;5094204;28;19969;-76
2023/11/05 10:52:01;;;;;;;;;;;;;;;20.84;40.21;98374.78;5094031;28;20002;-76
2023/11/05 10:54:27;;;;;;;;;;;;;;;20.83;40.76;98363.25;5075797;28;19919;-76
2023/11/05 10:56:52;;;;;;;;;;;;;;;20.83;40.86;98376.66;5075764;28;19975;-77
2023/11/05 10:59:33;;;;;;;;;;;;;;;20.85;40.60;98373.72;5093921;28;20412;-75
2023/11/05 11:01:58;;;;;;;;;;;;;;;20.90;40.63;98355.72;5094045;28;20400;-74
2023/11/05 11:04:23;;;;;;;;;;;;;;;20.90;40.72;98345.00;5093822;28;19927;-77
2023/11/05 11:06:50;;;;;;;;;;;;;;;20.95;40.61;98346.84;5093936;28;19995;-75
2023/11/05 11:09:19;;;;;;;;;;;;;;;20.97;40.13;98343.88;5092476;28;19920;-75
2023/11/05 11:11:45;;;;;;;;;;;;;;;20.92;40.03;98326.75;5092493;28;19912;-77
2023/11/05 11:14:10;;;;;;;;;;;;;;;20.94;40.29;98329.94;5093687;28;20451;-76
2023/11/05 11:16:36;;;;;;;;;;;;;;;20.98;39.35;98335.56;5093827;28;19912;-76
2023/11/05 11:19:08;;;;;;;;;;;;;;;20.98;39.49;98335.56;5093686;28;19916;-76
2023/11/05 11:21:36;;;;;;;;;;;;;;;21.01;40.16;98334.22;5093639;28;19912;-77
2023/11/05 11:24:20;;;;;;;;;;;;;;;20.99;39.80;98325.63;5091918;28;20464;-76
2023/11/05 11:26:46;;;;;;;;;;;;;;;21.04;39.21;98329.09;5093611;28;19918;-76
2023/11/05 11:29:17;;;;;;;;;;;;;;;21.08;39.54;98329.34;5093509;28;19920;-76
2023/11/05 11:31:44;;;;;;;;;;;;;;;21.13;39.80;98334.69;5092074;28;20308;-76
2023/11/05 11:34:10;;;;;;;;;;;;;;;21.18;38.88;98321.25;5075138;28;20354;-76
2023/11/05 11:36:35;;;;;;;;;;;;;;;21.23;39.88;98313.19;5093098;28;19912;-76
2023/11/05 11:39:00;;;;;;;;;;;;;;;21.27;39.16;98295.47;5093091;28;19968;-76
2023/11/05 11:41:32;;;;;;;;;;;;;;;21.28;38.53;98305.13;5093266;28;19912;-76
2023/11/05 11:43:58;;;;;;;;;;;;;;;21.29;38.74;98304.03;5093118;28;19916;-75
2023/11/05 11:46:23;;;;;;;;;;;;;;;21.30;39.01;98297.59;5093045;28;19920;-76
2023/11/05 11:48:48;;;;;;;;;;;;;;;21.30;38.32;98297.59;5092891;28;19916;-76
2023/11/05 11:51:14;;;;;;;;;;;;;;;21.30;40.09;98296.78;5093007;28;20312;-76
2023/11/05 11:53:40;;;;;;;;;;;;;;;21.30;38.35;98286.03;5093084;28;20007;-76
2023/11/05 11:56:06;;;;;;;;;;;;;;;21.33;39.74;98296.22;5092847;28;19920;-75
2023/11/05 11:58:41;;;;;;;;;;;;;;;21.33;38.60;98291.66;5092916;28;19916;-77
2023/11/05 12:01:10;;;;;;;;;;;;;;;21.34;38.51;98289.78;5093148;28;19912;-76
2023/11/05 12:03:35;;;;;;;;;;;;;;;21.32;38.12;98284.69;5092336;28;19924;-76
2023/11/05 12:06:00;;;;;;;;;;;;;;;21.32;37.73;98286.56;5092541;28;19979;-76
2023/11/05 12:08:38;;;;;;;;;;;;;;;21.33;39.02;98277.44;5074275;28;19916;-76
2023/11/05 12:11:12;;;;;;;;;;;;;;;21.32;38.85;98282.00;5092146;28;20478;-76
2023/11/05 12:13:39;;;;;;;;;;;;;;;21.35;39.99;98277.94;5092871;28;20320;-76
2023/11/05 12:16:05;;;;;;;;;;;;;;;21.33;39.68;98277.44;5092624;28;20441;-76
2023/11/05 12:18:31;;;;;;;;;;;;;;;21.31;39.29;98274.22;5092513;28;19908;-76
2023/11/05 12:20:57;;;;;;;;;;;;;;;21.29;39.21;98274.50;5091176;28;20282;-76
2023/11/05 12:23:22;;;;;;;;;;;;;;;21.29;38.40;98268.34;5092211;28;19908;-76
2023/11/05 12:26:00;;;;;;;;;;;;;;;21.27;38.91;98279.34;5092259;28;20324;-77
2023/11/05 12:28:29;;;;;;;;;;;;;;;21.29;39.81;98276.38;5092232;28;19920;-77
2023/11/05 12:30:58;;;;;;;;;;;;;;;21.27;37.65;98270.50;5092344;28;19919;-77
2023/11/05 12:33:23;;;;;;;;;;;;;;;21.28;39.34;98274.78;5092046;28;19912;-75
2023/11/05 12:35:50;;;;;;;;;;;;;;;21.31;39.01;98269.66;5092219;28;19919;-77
2023/11/05 12:38:16;;;;;;;;;;;;;;;21.31;38.74;98277.72;5092166;28;19908;-76
2023/11/05 12:40:41;;;;;;;;;;;;;;;21.31;39.29;98268.84;5070922;28;20383;-77